createdAt,value
2016-04-20T08:26:56.797Z,393.8
2016-04-20T08:27:06.875Z,399.4
2016-04-20T08:27:16.875Z,399.4
2016-04-20T08:27:26.875Z,405
2016-04-20T08:27:36.875Z,399.4
2016-04-20T08:27:46.875Z,388.1
2016-04-20T08:27:56.878Z,393.8
2016-04-20T08:28:06.878Z,388.1
2016-04-20T08:28:16.878Z,388.1
2016-04-20T08:28:26.878Z,382.5
2016-04-20T08:28:36.894Z,388.1
2016-04-20T08:28:46.878Z,393.8
2016-04-20T08:28:56.880Z,393.8
2016-04-20T08:29:06.896Z,393.8
2016-04-20T08:29:16.896Z,399.4
2016-04-20T08:29:26.911Z,410.6
2016-04-20T08:29:36.896Z,410.6
2016-04-20T08:29:46.896Z,410.6
2016-04-20T08:29:56.899Z,416.3
2016-04-20T08:30:06.899Z,427.5
2016-04-20T08:30:16.899Z,427.5
2016-04-20T08:30:26.914Z,427.5
2016-04-20T08:30:36.899Z,427.5
2016-04-20T08:30:46.899Z,416.3
2016-04-20T08:30:56.917Z,416.3
2016-04-20T08:31:06.917Z,416.3
2016-04-20T08:31:16.917Z,416.3
2016-04-20T08:31:26.761Z,421.9
2016-04-20T08:31:36.917Z,416.3
2016-04-20T08:31:46.917Z,405
2016-04-20T08:31:56.935Z,405
2016-04-20T08:32:06.935Z,399.4
2016-04-20T08:32:16.935Z,393.8
2016-04-20T08:32:26.935Z,388.1
2016-04-20T08:32:36.935Z,382.5
2016-04-20T08:32:46.935Z,382.5
2016-04-20T08:32:56.938Z,371.3
2016-04-20T08:33:06.938Z,365.6
2016-04-20T08:33:16.938Z,360
2016-04-20T08:33:26.938Z,354.4
2016-04-20T08:33:44.063Z,348.8
2016-04-20T08:33:48.800Z,348.8
2016-04-20T08:33:58.754Z,348.8
2016-04-20T08:34:08.675Z,348.8
2016-04-20T08:34:19.879Z,348.8
2016-04-20T08:34:28.769Z,348.8
2016-04-20T08:34:38.769Z,348.8
2016-04-20T08:34:48.709Z,354.4
2016-04-20T08:34:58.756Z,360
2016-04-20T08:35:08.881Z,360
2016-04-20T08:35:18.787Z,365.6
2016-04-20T08:35:28.787Z,371.3
2016-04-20T08:35:38.787Z,371.3
2016-04-20T08:35:48.790Z,376.9
2016-04-20T08:35:58.790Z,382.5
2016-04-20T08:36:08.837Z,382.5
2016-04-20T08:36:18.790Z,382.5
2016-04-20T08:36:28.790Z,382.5
2016-04-20T08:36:38.805Z,382.5
2016-04-20T08:36:48.808Z,388.1
2016-04-20T08:36:58.808Z,376.9
2016-04-20T08:37:08.808Z,376.9
2016-04-20T08:37:18.808Z,376.9
2016-04-20T08:37:28.808Z,382.5
2016-04-20T08:37:38.808Z,388.1
2016-04-20T08:37:48.826Z,393.8
2016-04-20T08:37:58.810Z,405
2016-04-20T08:38:08.826Z,405
2016-04-20T08:38:18.826Z,405
2016-04-20T08:38:28.826Z,410.6
2016-04-20T08:38:38.826Z,421.9
2016-04-20T08:38:48.813Z,427.5
2016-04-20T08:38:58.845Z,427.5
2016-04-20T08:39:08.829Z,433.1
2016-04-20T08:39:18.673Z,438.8
2016-04-20T08:39:28.829Z,438.8
2016-04-20T08:39:38.845Z,444.4
2016-04-20T08:39:48.832Z,444.4
2016-04-20T08:39:58.848Z,450
2016-04-20T08:40:08.848Z,455.6
2016-04-20T08:40:18.848Z,461.3
2016-04-20T08:40:28.848Z,461.3
2016-04-20T08:40:38.848Z,466.9
2016-04-20T08:40:48.851Z,466.9
2016-04-20T08:40:58.851Z,472.5
2016-04-20T08:41:08.851Z,472.5
2016-04-20T08:41:18.866Z,478.1
2016-04-20T08:41:28.851Z,472.5
2016-04-20T08:41:38.866Z,466.9
2016-04-20T08:41:48.884Z,461.3
2016-04-20T08:41:58.868Z,461.3
2016-04-20T08:42:08.868Z,455.6
2016-04-20T08:42:18.868Z,455.6
2016-04-20T08:42:28.978Z,450
2016-04-20T08:42:38.868Z,450
2016-04-20T08:42:48.871Z,450
2016-04-20T08:42:58.887Z,450
2016-04-20T08:43:08.871Z,444.4
2016-04-20T08:43:18.887Z,444.4
2016-04-20T08:43:28.887Z,444.4
2016-04-20T08:43:38.887Z,444.4
2016-04-20T08:43:48.890Z,444.4
2016-04-20T08:43:58.890Z,438.8
2016-04-20T08:44:08.890Z,438.8
2016-04-20T08:44:18.781Z,433.1
2016-04-20T08:44:28.890Z,433.1
2016-04-20T08:44:38.906Z,433.1
2016-04-20T08:44:48.909Z,433.1
2016-04-20T08:44:58.909Z,433.1
2016-04-20T08:45:08.909Z,433.1
2016-04-20T08:45:18.909Z,438.8
2016-04-20T08:45:28.909Z,438.8
2016-04-20T08:45:38.909Z,444.4
2016-04-20T08:45:48.911Z,450
2016-04-20T08:45:58.926Z,455.6
2016-04-20T08:46:08.926Z,466.9
2016-04-20T08:46:18.911Z,472.5
2016-04-20T08:46:28.926Z,483.8
2016-04-20T08:46:38.926Z,489.4
2016-04-20T08:46:48.929Z,495
2016-04-20T08:46:58.945Z,500.6
2016-04-20T08:47:08.929Z,506.3
2016-04-20T08:47:18.929Z,517.5
2016-04-20T08:47:28.945Z,517.5
2016-04-20T08:47:38.945Z,523.1
2016-04-20T08:47:48.948Z,528.8
2016-04-20T08:47:58.948Z,528.8
2016-04-20T08:48:08.948Z,534.4
2016-04-20T08:48:18.948Z,534.4
2016-04-20T08:48:28.948Z,540
2016-04-20T08:48:38.963Z,540
2016-04-20T08:48:48.951Z,540
2016-04-20T08:48:58.951Z,534.4
2016-04-20T08:49:08.966Z,523.1
2016-04-20T08:49:19.013Z,517.5
2016-04-20T08:49:28.966Z,511.9
2016-04-20T08:49:38.966Z,506.3
2016-04-20T08:49:48.984Z,506.3
2016-04-20T08:49:58.968Z,500.6
2016-04-20T08:50:08.968Z,489.4
2016-04-20T08:50:18.984Z,483.8
2016-04-20T08:50:28.984Z,483.8
2016-04-20T08:50:38.984Z,472.5
2016-04-20T08:50:48.987Z,472.5
2016-04-20T08:50:58.987Z,461.3
2016-04-20T08:51:08.987Z,455.6
2016-04-20T08:51:18.987Z,450
2016-04-20T08:51:28.987Z,450
2016-04-20T08:51:38.987Z,444.4
2016-04-20T08:51:48.989Z,438.8
2016-04-20T08:51:59.005Z,433.1
2016-04-20T08:52:09.005Z,421.9
2016-04-20T08:52:19.005Z,416.3
2016-04-20T08:52:29.005Z,405
2016-04-20T08:52:39.005Z,399.4
2016-04-20T08:52:49.008Z,388.1
2016-04-20T08:52:59.008Z,382.5
2016-04-20T08:53:09.008Z,382.5
2016-04-20T08:53:19.008Z,376.9
2016-04-20T08:53:29.023Z,376.9
2016-04-20T08:53:39.023Z,371.3
2016-04-20T08:53:49.011Z,371.3
2016-04-20T08:53:59.026Z,371.3
2016-04-20T08:54:09.042Z,371.3
2016-04-20T08:54:19.042Z,376.9
2016-04-20T08:54:29.042Z,376.9
2016-04-20T08:54:39.026Z,376.9
2016-04-20T08:54:49.044Z,376.9
2016-04-20T08:54:59.091Z,376.9
2016-04-20T08:55:08.278Z,376.9
2016-04-20T08:55:19.044Z,376.9
2016-04-20T08:55:29.044Z,371.3
2016-04-20T08:55:39.060Z,365.6
2016-04-20T08:55:49.047Z,360
2016-04-20T08:55:59.063Z,360
2016-04-20T08:56:09.047Z,360
2016-04-20T08:56:19.063Z,354.4
2016-04-20T08:56:29.063Z,354.4
2016-04-20T08:56:39.063Z,354.4
2016-04-20T08:56:49.065Z,354.4
2016-04-20T08:56:59.065Z,360
2016-04-20T08:57:09.065Z,354.4
2016-04-20T08:57:19.065Z,354.4
2016-04-20T08:57:29.080Z,354.4
2016-04-20T08:57:39.080Z,360
2016-04-20T08:57:49.084Z,360
2016-04-20T08:57:59.084Z,365.6
2016-04-20T08:58:09.084Z,360
2016-04-20T08:58:19.084Z,365.6
2016-04-20T08:58:29.084Z,365.6
2016-04-20T08:58:39.084Z,365.6
2016-04-20T08:58:49.086Z,371.3
2016-04-20T08:58:59.086Z,371.3
2016-04-20T08:59:09.086Z,382.5
2016-04-20T08:59:19.102Z,376.9
2016-04-20T08:59:29.102Z,382.5
2016-04-20T08:59:39.102Z,382.5
2016-04-20T08:59:49.105Z,382.5
2016-04-20T08:59:59.105Z,382.5
2016-04-20T09:00:09.105Z,388.1
2016-04-20T09:00:19.105Z,393.8
2016-04-20T09:00:29.120Z,388.1
2016-04-20T09:00:39.120Z,388.1
2016-04-20T09:00:49.123Z,393.8
2016-04-20T09:00:59.108Z,393.8
2016-04-20T09:01:09.123Z,399.4
2016-04-20T09:01:19.123Z,399.4
2016-04-20T09:01:29.123Z,405
2016-04-20T09:01:39.123Z,410.6
2016-04-20T09:01:49.125Z,410.6
2016-04-20T09:01:59.141Z,416.3
2016-04-20T09:02:09.125Z,416.3
2016-04-20T09:02:19.141Z,421.9
2016-04-20T09:02:29.141Z,427.5
2016-04-20T09:02:39.141Z,433.1
2016-04-20T09:02:48.988Z,438.8
2016-04-20T09:02:59.144Z,444.4
2016-04-20T09:03:09.144Z,450
2016-04-20T09:03:19.144Z,455.6
2016-04-20T09:03:29.160Z,461.3
2016-04-20T09:03:39.160Z,466.9
2016-04-20T09:03:49.177Z,472.5
2016-04-20T09:03:59.162Z,483.8
2016-04-20T09:04:09.162Z,495
2016-04-20T09:04:19.162Z,506.3
2016-04-20T09:04:29.162Z,517.5
2016-04-20T09:04:39.255Z,528.8
2016-04-20T09:04:49.258Z,534.4
2016-04-20T09:04:59.165Z,545.6
2016-04-20T09:05:09.180Z,551.3
2016-04-20T09:05:19.165Z,562.5
2016-04-20T09:05:29.180Z,579.4
2016-04-20T09:05:39.196Z,590.6
2016-04-20T09:05:49.182Z,596.3
2016-04-20T09:05:59.182Z,601.9
2016-04-20T09:06:09.198Z,601.9
2016-04-20T09:06:19.182Z,607.5
2016-04-20T09:06:29.198Z,613.1
2016-04-20T09:06:39.198Z,613.1
2016-04-20T09:06:49.202Z,618.8
2016-04-20T09:06:59.202Z,618.8
2016-04-20T09:07:09.202Z,618.8
2016-04-20T09:07:19.202Z,624.4
2016-04-20T09:07:29.202Z,624.4
2016-04-20T09:07:39.218Z,618.8
2016-04-20T09:07:49.204Z,618.8
2016-04-20T09:07:59.220Z,613.1
2016-04-20T09:08:09.204Z,613.1
2016-04-20T09:08:19.220Z,613.1
2016-04-20T09:08:29.220Z,613.1
2016-04-20T09:08:39.220Z,607.5
2016-04-20T09:08:49.223Z,601.9
2016-04-20T09:08:59.066Z,607.5
2016-04-20T09:09:09.223Z,601.9
2016-04-20T09:09:19.082Z,607.5
2016-04-20T09:09:29.223Z,613.1
2016-04-20T09:09:39.238Z,624.4
2016-04-20T09:09:49.257Z,624.4
2016-04-20T09:09:59.241Z,635.6
2016-04-20T09:10:09.241Z,635.6
2016-04-20T09:10:19.241Z,646.9
2016-04-20T09:10:29.257Z,646.9
2016-04-20T09:10:39.241Z,652.5
2016-04-20T09:10:49.275Z,652.5
2016-04-20T09:10:59.260Z,652.5
2016-04-20T09:11:09.260Z,652.5
2016-04-20T09:11:19.260Z,641.3
2016-04-20T09:11:29.260Z,635.6
2016-04-20T09:11:39.275Z,630
2016-04-20T09:11:49.262Z,630
2016-04-20T09:11:59.277Z,613.1
2016-04-20T09:12:09.277Z,613.1
2016-04-20T09:12:19.277Z,607.5
2016-04-20T09:12:29.277Z,607.5
2016-04-20T09:12:39.277Z,613.1
2016-04-20T09:12:49.280Z,624.4
2016-04-20T09:12:59.140Z,635.6
2016-04-20T09:13:09.280Z,641.3
2016-04-20T09:13:19.280Z,646.9
2016-04-20T09:13:29.280Z,646.9
2016-04-20T09:13:39.296Z,652.5
2016-04-20T09:13:49.299Z,646.9
2016-04-20T09:13:59.299Z,646.9
2016-04-20T09:14:09.299Z,641.3
2016-04-20T09:14:19.299Z,641.3
2016-04-20T09:14:29.299Z,635.6
2016-04-20T09:14:39.315Z,630
2016-04-20T09:14:49.364Z,624.4
2016-04-20T09:14:59.317Z,624.4
2016-04-20T09:15:09.317Z,630
2016-04-20T09:15:19.317Z,624.4
2016-04-20T09:15:29.317Z,624.4
2016-04-20T09:15:39.364Z,613.1
2016-04-20T09:15:49.320Z,613.1
2016-04-20T09:15:59.320Z,613.1
2016-04-20T09:16:09.335Z,607.5
2016-04-20T09:16:19.335Z,607.5
2016-04-20T09:16:29.320Z,613.1
2016-04-20T09:16:39.335Z,607.5
2016-04-20T09:16:49.337Z,607.5
2016-04-20T09:16:59.337Z,601.9
2016-04-20T09:17:09.337Z,596.3
2016-04-20T09:17:19.337Z,590.6
2016-04-20T09:17:29.337Z,590.6
2016-04-20T09:17:39.353Z,585
2016-04-20T09:17:49.356Z,585
2016-04-20T09:17:59.356Z,585
2016-04-20T09:18:09.356Z,579.4
2016-04-20T09:18:19.356Z,573.8
2016-04-20T09:18:29.356Z,556.9
2016-04-20T09:18:39.356Z,551.3
2016-04-20T09:18:49.375Z,540
2016-04-20T09:18:59.375Z,534.4
2016-04-20T09:19:09.375Z,528.8
2016-04-20T09:19:19.375Z,528.8
2016-04-20T09:19:29.375Z,528.8
2016-04-20T09:19:39.375Z,511.9
2016-04-20T09:19:49.440Z,517.5
2016-04-20T09:19:59.440Z,506.3
2016-04-20T09:20:09.393Z,500.6
2016-04-20T09:20:19.393Z,500.6
2016-04-20T09:20:29.393Z,495
2016-04-20T09:20:39.393Z,489.4
2016-04-20T09:20:49.489Z,489.4
2016-04-20T09:20:59.395Z,489.4
2016-04-20T09:21:09.411Z,483.8
2016-04-20T09:21:19.426Z,483.8
2016-04-20T09:21:29.880Z,472.5
2016-04-20T09:21:39.255Z,466.9
2016-04-20T09:21:49.429Z,461.3
2016-04-20T09:21:59.420Z,461.3
2016-04-20T09:22:09.267Z,455.6
2016-04-20T09:22:19.424Z,455.6
2016-04-20T09:22:29.366Z,450
2016-04-20T09:22:39.538Z,455.6
2016-04-20T09:22:49.447Z,450
2016-04-20T09:22:59.431Z,450
2016-04-20T09:23:09.447Z,450
2016-04-20T09:23:19.431Z,450
2016-04-20T09:23:29.447Z,450
2016-04-20T09:23:39.447Z,444.4
2016-04-20T09:23:49.450Z,444.4
2016-04-20T09:23:59.450Z,444.4
2016-04-20T09:24:09.450Z,438.8
2016-04-20T09:24:19.450Z,438.8
2016-04-20T09:24:29.450Z,433.1
2016-04-20T09:24:39.466Z,427.5
2016-04-20T09:24:49.452Z,427.5
2016-04-20T09:24:59.452Z,421.9
2016-04-20T09:25:09.468Z,416.3
2016-04-20T09:25:19.468Z,416.3
2016-04-20T09:25:29.468Z,410.6
2016-04-20T09:25:39.468Z,410.6
2016-04-20T09:25:49.471Z,410.6
2016-04-20T09:25:59.471Z,410.6
2016-04-20T09:26:09.486Z,405
2016-04-20T09:26:19.330Z,405
2016-04-20T09:26:29.471Z,399.4
2016-04-20T09:26:39.471Z,393.8
2016-04-20T09:26:49.488Z,393.8
2016-04-20T09:26:59.488Z,388.1
2016-04-20T09:27:09.488Z,382.5
2016-04-20T09:27:19.488Z,376.9
2016-04-20T09:27:29.488Z,371.3
2016-04-20T09:27:39.488Z,365.6
2016-04-20T09:27:49.491Z,365.6
2016-04-20T09:27:59.507Z,365.6
2016-04-20T09:28:09.507Z,354.4
2016-04-20T09:28:19.507Z,348.8
2016-04-20T09:28:29.507Z,348.8
2016-04-20T09:28:39.507Z,343.1
2016-04-20T09:28:51.276Z,337.5
2016-04-20T09:28:59.510Z,331.9
2016-04-20T09:29:09.510Z,326.3
2016-04-20T09:29:19.526Z,320.6
2016-04-20T09:29:29.526Z,315
2016-04-20T09:29:39.526Z,315
2016-04-20T09:29:49.529Z,309.4
2016-04-20T09:29:59.529Z,303.8
2016-04-20T09:30:09.544Z,303.8
2016-04-20T09:30:19.529Z,298.1
2016-04-20T09:30:29.529Z,292.5
2016-04-20T09:30:39.544Z,286.9
2016-04-20T09:30:49.546Z,292.5
2016-04-20T09:30:59.546Z,281.3
2016-04-20T09:31:09.546Z,281.3
2016-04-20T09:31:19.546Z,275.6
2016-04-20T09:31:29.546Z,275.6
2016-04-20T09:31:39.562Z,275.6
2016-04-20T09:31:49.549Z,275.6
2016-04-20T09:31:59.565Z,270
2016-04-20T09:32:09.565Z,270
2016-04-20T09:32:19.565Z,264.4
2016-04-20T09:32:29.565Z,247.5
2016-04-20T09:32:39.565Z,247.5
2016-04-20T09:32:49.567Z,247.5
2016-04-20T09:32:59.567Z,241.9
2016-04-20T09:33:09.567Z,241.9
2016-04-20T09:33:19.582Z,247.5
2016-04-20T09:33:29.582Z,253.1
2016-04-20T09:33:39.582Z,253.1
2016-04-20T09:33:49.585Z,247.5
2016-04-20T09:33:59.601Z,247.5
2016-04-20T09:34:09.585Z,247.5
2016-04-20T09:34:19.585Z,247.5
2016-04-20T09:34:29.585Z,247.5
2016-04-20T09:34:39.585Z,247.5
2016-04-20T09:34:49.510Z,247.5
2016-04-20T09:34:59.588Z,247.5
2016-04-20T09:35:09.620Z,247.5
2016-04-20T09:35:19.604Z,247.5
2016-04-20T09:35:29.604Z,247.5
2016-04-20T09:35:39.604Z,247.5
2016-04-20T09:35:49.606Z,247.5
2016-04-20T09:35:59.622Z,241.9
2016-04-20T09:36:09.622Z,241.9
2016-04-20T09:36:19.622Z,247.5
2016-04-20T09:36:29.622Z,241.9
2016-04-20T09:36:39.622Z,241.9
2016-04-20T09:36:49.625Z,241.9
2016-04-20T09:36:59.625Z,241.9
2016-04-20T09:37:09.640Z,241.9
2016-04-20T09:37:19.625Z,247.5
2016-04-20T09:37:29.625Z,247.5
2016-04-20T09:37:39.640Z,247.5
2016-04-20T09:37:49.642Z,247.5
2016-04-20T09:37:59.642Z,247.5
2016-04-20T09:38:09.642Z,247.5
2016-04-20T09:38:19.658Z,247.5
2016-04-20T09:38:29.642Z,247.5
2016-04-20T09:38:39.658Z,247.5
2016-04-20T09:38:49.662Z,247.5
2016-04-20T09:38:59.662Z,247.5
2016-04-20T09:39:09.662Z,247.5
2016-04-20T09:39:19.662Z,247.5
2016-04-20T09:39:29.662Z,247.5
2016-04-20T09:39:39.678Z,247.5
2016-04-20T09:39:49.664Z,247.5
2016-04-20T09:39:59.664Z,247.5
2016-04-20T09:40:09.664Z,247.5
2016-04-20T09:40:19.664Z,247.5
2016-04-20T09:40:29.664Z,253.1
2016-04-20T09:40:39.680Z,253.1
2016-04-20T09:40:49.683Z,253.1
2016-04-20T09:40:59.683Z,253.1
2016-04-20T09:41:09.683Z,253.1
2016-04-20T09:41:19.683Z,253.1
2016-04-20T09:41:29.683Z,258.8
2016-04-20T09:41:39.698Z,258.8
2016-04-20T09:41:49.686Z,258.8
2016-04-20T09:41:59.701Z,258.8
2016-04-20T09:42:09.701Z,258.8
2016-04-20T09:42:19.701Z,258.8
2016-04-20T09:42:29.701Z,258.8
2016-04-20T09:42:39.701Z,258.8
2016-04-20T09:42:49.703Z,264.4
2016-04-20T09:42:59.703Z,264.4
2016-04-20T09:43:09.703Z,264.4
2016-04-20T09:43:19.719Z,264.4
2016-04-20T09:43:29.719Z,264.4
2016-04-20T09:43:39.719Z,264.4
2016-04-20T09:43:49.722Z,270
2016-04-20T09:43:59.722Z,270
2016-04-20T09:44:09.722Z,270
2016-04-20T09:44:19.737Z,275.6
2016-04-20T09:44:29.737Z,275.6
2016-04-20T09:44:39.737Z,281.3
2016-04-20T09:44:49.724Z,281.3
2016-04-20T09:44:59.724Z,286.9
2016-04-20T09:45:09.739Z,286.9
2016-04-20T09:45:19.739Z,286.9
2016-04-20T09:45:29.739Z,292.5
2016-04-20T09:45:39.739Z,292.5
2016-04-20T09:45:49.742Z,298.1
2016-04-20T09:45:59.742Z,303.8
2016-04-20T09:46:09.758Z,309.4
2016-04-20T09:46:19.742Z,309.4
2016-04-20T09:46:29.758Z,315
2016-04-20T09:46:39.758Z,320.6
2016-04-20T09:46:49.761Z,326.3
2016-04-20T09:46:59.761Z,331.9
2016-04-20T09:47:09.761Z,337.5
2016-04-20T09:47:19.761Z,343.1
2016-04-20T09:47:29.761Z,343.1
2016-04-20T09:47:39.761Z,354.4
2016-04-20T09:47:49.764Z,360
2016-04-20T09:47:59.780Z,365.6
2016-04-20T09:48:09.780Z,376.9
2016-04-20T09:48:19.780Z,388.1
2016-04-20T09:48:29.780Z,393.8
2016-04-20T09:48:39.780Z,405
2016-04-20T09:48:49.642Z,416.3
2016-04-20T09:48:59.798Z,416.3
2016-04-20T09:49:09.798Z,421.9
2016-04-20T09:49:19.798Z,433.1
2016-04-20T09:49:29.798Z,438.8
2016-04-20T09:49:39.798Z,444.4
2016-04-20T09:49:49.910Z,455.6
2016-04-20T09:49:59.957Z,461.3
2016-04-20T09:50:09.800Z,472.5
2016-04-20T09:50:19.800Z,478.1
2016-04-20T09:50:29.816Z,489.4
2016-04-20T09:50:39.800Z,500.6
2016-04-20T09:50:49.819Z,506.3
2016-04-20T09:50:59.835Z,511.9
2016-04-20T09:51:09.819Z,523.1
2016-04-20T09:51:19.819Z,511.9
2016-04-20T09:51:29.819Z,528.8
2016-04-20T09:51:39.678Z,528.8
2016-04-20T09:51:49.837Z,534.4
2016-04-20T09:51:59.837Z,540
2016-04-20T09:52:09.837Z,540
2016-04-20T09:52:19.837Z,540
2016-04-20T09:52:29.837Z,540
2016-04-20T09:52:39.837Z,540
2016-04-20T09:52:49.840Z,540
2016-04-20T09:52:59.840Z,545.6
2016-04-20T09:53:09.840Z,545.6
2016-04-20T09:53:19.855Z,545.6
2016-04-20T09:53:29.855Z,545.6
2016-04-20T09:53:39.855Z,545.6
2016-04-20T09:53:49.858Z,540
2016-04-20T09:53:59.858Z,540
2016-04-20T09:54:09.858Z,540
2016-04-20T09:54:19.858Z,540
2016-04-20T09:54:29.858Z,540
2016-04-20T09:54:39.858Z,534.4
2016-04-20T09:54:49.877Z,528.8
2016-04-20T09:54:59.877Z,517.5
2016-04-20T09:55:09.877Z,511.9
2016-04-20T09:55:19.877Z,506.3
2016-04-20T09:55:29.877Z,511.9
2016-04-20T09:55:39.877Z,495
2016-04-20T09:55:49.879Z,489.4
2016-04-20T09:55:59.894Z,489.4
2016-04-20T09:56:09.894Z,483.8
2016-04-20T09:56:19.879Z,478.1
2016-04-20T09:56:29.894Z,472.5
2016-04-20T09:56:39.894Z,461.3
2016-04-20T09:56:49.897Z,461.3
2016-04-20T09:56:59.897Z,444.4
2016-04-20T09:57:09.897Z,433.1
2016-04-20T09:57:19.913Z,421.9
2016-04-20T09:57:29.897Z,410.6
2016-04-20T09:57:39.913Z,399.4
2016-04-20T09:57:49.900Z,382.5
2016-04-20T09:57:59.900Z,365.6
2016-04-20T09:58:09.916Z,348.8
2016-04-20T09:58:19.916Z,331.9
2016-04-20T09:58:29.916Z,326.3
2016-04-20T09:58:39.916Z,320.6
2016-04-20T09:58:49.918Z,315
2016-04-20T09:58:59.918Z,309.4
2016-04-20T09:59:09.918Z,309.4
2016-04-20T09:59:19.918Z,303.8
2016-04-20T09:59:29.934Z,303.8
2016-04-20T09:59:39.934Z,298.1
2016-04-20T09:59:49.937Z,298.1
2016-04-20T09:59:59.952Z,298.1
2016-04-20T10:00:09.937Z,298.1
2016-04-20T10:00:19.937Z,298.1
2016-04-20T10:00:29.937Z,298.1
2016-04-20T10:00:39.937Z,298.1
2016-04-20T10:00:50.736Z,298.1
2016-04-20T10:00:59.954Z,298.1
2016-04-20T10:01:09.939Z,298.1
2016-04-20T10:01:19.939Z,298.1
2016-04-20T10:01:29.954Z,303.8
2016-04-20T10:01:39.954Z,303.8
2016-04-20T10:01:49.957Z,303.8
2016-04-20T10:01:59.973Z,303.8
2016-04-20T10:02:09.973Z,309.4
2016-04-20T10:02:19.973Z,303.8
2016-04-20T10:02:29.973Z,303.8
2016-04-20T10:02:39.973Z,303.8
2016-04-20T10:02:49.976Z,303.8
2016-04-20T10:02:59.992Z,298.1
2016-04-20T10:03:09.976Z,298.1
2016-04-20T10:03:19.992Z,298.1
2016-04-20T10:03:29.992Z,292.5
2016-04-20T10:03:39.992Z,292.5
2016-04-20T10:03:49.994Z,292.5
2016-04-20T10:03:59.837Z,298.1
2016-04-20T10:04:09.853Z,298.1
2016-04-20T10:04:19.994Z,303.8
2016-04-20T10:04:30.009Z,303.8
2016-04-20T10:04:39.994Z,298.1
2016-04-20T10:04:50.028Z,298.1
2016-04-20T10:04:59.965Z,298.1
2016-04-20T10:05:10.012Z,298.1
2016-04-20T10:05:20.043Z,298.1
2016-04-20T10:05:30.012Z,298.1
2016-04-20T10:05:40.028Z,298.1
2016-04-20T10:05:50.015Z,298.1
2016-04-20T10:06:00.015Z,292.5
2016-04-20T10:06:10.281Z,286.9
2016-04-20T10:06:20.031Z,281.3
2016-04-20T10:06:30.046Z,258.8
2016-04-20T10:06:40.218Z,275.6
2016-04-20T10:06:50.033Z,258.8
2016-04-20T10:07:00.033Z,253.1
2016-04-20T10:07:10.033Z,247.5
2016-04-20T10:07:20.033Z,241.9
2016-04-20T10:07:30.048Z,236.3
2016-04-20T10:07:40.033Z,236.3
2016-04-20T10:07:50.051Z,236.3
2016-04-20T10:08:00.051Z,230.6
2016-04-20T10:08:10.036Z,230.6
2016-04-20T10:08:20.051Z,236.3
2016-04-20T10:08:30.067Z,236.3
2016-04-20T10:08:40.051Z,236.3
2016-04-20T10:08:50.054Z,241.9
2016-04-20T10:09:00.054Z,236.3
2016-04-20T10:09:10.054Z,236.3
2016-04-20T10:09:20.070Z,236.3
2016-04-20T10:09:30.070Z,247.5
2016-04-20T10:09:40.070Z,247.5
2016-04-20T10:09:50.073Z,241.9
2016-04-20T10:10:01.151Z,236.3
2016-04-20T10:10:10.089Z,230.6
2016-04-20T10:10:20.073Z,230.6
2016-04-20T10:10:30.073Z,225
2016-04-20T10:10:40.089Z,236.3
2016-04-20T10:10:50.092Z,241.9
2016-04-20T10:11:00.092Z,247.5
2016-04-20T10:11:10.092Z,247.5
2016-04-20T10:11:20.092Z,247.5
2016-04-20T10:11:30.139Z,247.5
2016-04-20T10:11:40.092Z,247.5
2016-04-20T10:11:50.094Z,247.5
2016-04-20T10:12:00.109Z,247.5
2016-04-20T10:12:10.109Z,247.5
2016-04-20T10:12:20.094Z,247.5
2016-04-20T10:12:30.109Z,247.5
2016-04-20T10:12:40.109Z,247.5
2016-04-20T10:12:50.128Z,241.9
2016-04-20T10:13:00.112Z,241.9
2016-04-20T10:13:10.112Z,230.6
2016-04-20T10:13:20.112Z,236.3
2016-04-20T10:13:30.128Z,230.6
2016-04-20T10:13:40.128Z,225
2016-04-20T10:13:50.115Z,230.6
2016-04-20T10:14:00.115Z,241.9
2016-04-20T10:14:10.131Z,241.9
2016-04-20T10:14:20.131Z,241.9
2016-04-20T10:14:30.131Z,241.9
2016-04-20T10:14:40.147Z,247.5
2016-04-20T10:14:50.150Z,241.9
2016-04-20T10:15:00.134Z,247.5
2016-04-20T10:15:10.150Z,247.5
2016-04-20T10:15:20.275Z,247.5
2016-04-20T10:15:30.150Z,247.5
2016-04-20T10:15:40.150Z,247.5
2016-04-20T10:15:50.152Z,247.5
2016-04-20T10:16:00.152Z,247.5
2016-04-20T10:16:09.995Z,247.5
2016-04-20T10:16:20.167Z,247.5
2016-04-20T10:16:30.152Z,247.5
2016-04-20T10:16:40.167Z,247.5
2016-04-20T10:16:50.186Z,247.5
2016-04-20T10:17:00.170Z,247.5
2016-04-20T10:17:10.170Z,247.5
2016-04-20T10:17:20.186Z,247.5
2016-04-20T10:17:30.170Z,247.5
2016-04-20T10:17:40.186Z,247.5
2016-04-20T10:17:50.189Z,247.5
2016-04-20T10:17:58.689Z,247.5
2016-04-20T10:18:10.189Z,247.5
2016-04-20T10:18:20.204Z,247.5
2016-04-20T10:18:29.439Z,247.5
2016-04-20T10:18:40.189Z,247.5
2016-04-20T10:18:50.222Z,247.5
2016-04-20T10:19:00.206Z,253.1
2016-04-20T10:19:10.222Z,247.5
2016-04-20T10:19:20.222Z,253.1
2016-04-20T10:19:30.613Z,253.1
2016-04-20T10:19:40.222Z,253.1
2016-04-20T10:19:50.225Z,253.1
2016-04-20T10:20:00.334Z,253.1
2016-04-20T10:20:10.241Z,253.1
2016-04-20T10:20:20.209Z,247.5
2016-04-20T10:20:30.209Z,247.5
2016-04-20T10:20:40.209Z,247.5
2016-04-20T10:20:50.228Z,247.5
2016-04-20T10:21:00.212Z,253.1
2016-04-20T10:21:10.212Z,247.5
2016-04-20T10:21:20.228Z,247.5
2016-04-20T10:21:30.228Z,247.5
2016-04-20T10:21:40.244Z,247.5
2016-04-20T10:21:50.230Z,247.5
2016-04-20T10:22:00.246Z,247.5
2016-04-20T10:22:10.230Z,247.5
2016-04-20T10:22:20.230Z,247.5
2016-04-20T10:22:30.246Z,247.5
2016-04-20T10:22:40.230Z,247.5
2016-04-20T10:22:50.249Z,247.5
2016-04-20T10:23:00.249Z,241.9
2016-04-20T10:23:10.249Z,241.9
2016-04-20T10:23:20.249Z,236.3
2016-04-20T10:23:30.264Z,236.3
2016-04-20T10:23:40.249Z,241.9
2016-04-20T10:23:50.252Z,230.6
2016-04-20T10:24:00.252Z,225
2016-04-20T10:24:10.267Z,230.6
2016-04-20T10:24:20.267Z,236.3
2016-04-20T10:24:30.267Z,219.4
2016-04-20T10:24:40.267Z,219.4
2016-04-20T10:24:50.269Z,219.4
2016-04-20T10:25:00.269Z,219.4
2016-04-20T10:25:10.269Z,219.4
2016-04-20T10:25:20.269Z,219.4
2016-04-20T10:25:30.285Z,219.4
2016-04-20T10:25:40.285Z,225
2016-04-20T10:25:50.272Z,225
2016-04-20T10:26:00.288Z,225
2016-04-20T10:26:10.288Z,230.6
2016-04-20T10:26:20.288Z,230.6
2016-04-20T10:26:30.304Z,230.6
2016-04-20T10:26:40.304Z,230.6
2016-04-20T10:26:50.290Z,230.6
2016-04-20T10:27:00.290Z,230.6
2016-04-20T10:27:10.306Z,230.6
2016-04-20T10:27:20.306Z,230.6
2016-04-20T10:27:30.321Z,230.6
2016-04-20T10:27:40.306Z,230.6
2016-04-20T10:27:50.309Z,230.6
2016-04-20T10:28:00.309Z,230.6
2016-04-20T10:28:10.309Z,230.6
2016-04-20T10:28:19.559Z,230.6
2016-04-20T10:28:30.324Z,236.3
2016-04-20T10:28:40.324Z,247.5
2016-04-20T10:28:50.327Z,247.5
2016-04-20T10:29:00.312Z,264.4
2016-04-20T10:29:10.327Z,264.4
2016-04-20T10:29:20.327Z,264.4
2016-04-20T10:29:30.327Z,264.4
2016-04-20T10:29:40.327Z,270
2016-04-20T10:29:50.330Z,270
2016-04-20T10:30:00.346Z,270
2016-04-20T10:30:10.346Z,275.6
2016-04-20T10:30:20.361Z,270
2016-04-20T10:30:30.346Z,270
2016-04-20T10:30:40.346Z,275.6
2016-04-20T10:30:50.348Z,270
2016-04-20T10:31:00.363Z,275.6
2016-04-20T10:31:10.348Z,264.4
2016-04-20T10:31:20.363Z,275.6
2016-04-20T10:31:30.348Z,275.6
2016-04-20T10:31:40.348Z,275.6
2016-04-20T10:31:50.351Z,275.6
2016-04-20T10:32:00.351Z,275.6
2016-04-20T10:32:10.366Z,275.6
2016-04-20T10:32:20.366Z,275.6
2016-04-20T10:32:30.366Z,281.3
2016-04-20T10:32:40.366Z,281.3
2016-04-20T10:32:50.369Z,281.3
2016-04-20T10:33:00.369Z,281.3
2016-04-20T10:33:10.369Z,281.3
2016-04-20T10:33:20.369Z,281.3
2016-04-20T10:33:30.385Z,281.3
2016-04-20T10:33:40.369Z,281.3
2016-04-20T10:33:50.372Z,281.3
2016-04-20T10:34:00.388Z,286.9
2016-04-20T10:34:10.388Z,281.3
2016-04-20T10:34:20.388Z,281.3
2016-04-20T10:34:30.404Z,275.6
2016-04-20T10:34:40.388Z,275.6
2016-04-20T10:34:50.391Z,275.6
2016-04-20T10:35:00.391Z,270
2016-04-20T10:35:10.313Z,270
2016-04-20T10:35:20.313Z,264.4
2016-04-20T10:35:30.454Z,264.4
2016-04-20T10:35:40.422Z,264.4
2016-04-20T10:35:50.409Z,258.8
2016-04-20T10:36:00.409Z,258.8
2016-04-20T10:36:10.409Z,253.1
2016-04-20T10:36:20.409Z,253.1
2016-04-20T10:36:30.409Z,253.1
2016-04-20T10:36:40.409Z,258.8